sensor_id;sensor_type;location;lat;lon;timestamp;pressure;altitude;pressure_sealevel;temperature;humidity
35989;BME280;22064;42.672;23.282;2023-04-01T00:00:57;93797.09;;;11.63;100.00
35989;BME280;22064;42.672;23.282;2023-04-01T00:03:24;93802.31;;;11.58;100.00
35989;BME280;22064;42.672;23.282;2023-04-01T00:05:54;93800.47;;;11.59;100.00
35989;BME280;22064;42.672;23.282;2023-04-01T00:08:21;93796.63;;;11.46;100.00
35989;BME280;22064;42.672;23.282;2023-04-01T00:10:47;93796.31;;;11.63;100.00
35989;BME280;22064;42.672;23.282;2023-04-01T00:13:14;93796.63;;;11.46;100.00
35989;BME280;22064;42.672;23.282;2023-04-01T00:15:40;93804.50;;;11.41;100.00
35989;BME280;22064;42.672;23.282;2023-04-01T00:18:06;93804.97;;;11.43;100.00
35989;BME280;22064;42.672;23.282;2023-04-01T00:20:32;93806.03;;;11.42;100.00
35989;BME280;22064;42.672;23.282;2023-04-01T00:22:58;93808.41;;;11.33;100.00
35989;BME280;22064;42.672;23.282;2023-04-01T00:25:24;93806.88;;;11.27;100.00
35989;BME280;22064;42.672;23.282;2023-04-01T00:27:50;93803.56;;;11.06;100.00
35989;BME280;22064;42.672;23.282;2023-04-01T00:30:17;93803.56;;;10.96;100.00
35989;BME280;22064;42.672;23.282;2023-04-01T00:32:43;93799.38;;;11.05;100.00
35989;BME280;22064;42.672;23.282;2023-04-01T00:35:09;93797.03;;;11.08;100.00
35989;BME280;22064;42.672;23.282;2023-04-01T00:37:37;93797.84;;;10.99;100.00
35989;BME280;22064;42.672;23.282;2023-04-01T00:40:19;93791.09;;;10.77;100.00
35989;BME280;22064;42.672;23.282;2023-04-01T00:42:47;93790.06;;;10.73;100.00
35989;BME280;22064;42.672;23.282;2023-04-01T00:45:35;93776.53;;;10.61;100.00
35989;BME280;22064;42.672;23.282;2023-04-01T00:48:06;93780.97;;;10.55;100.00
35989;BME280;22064;42.672;23.282;2023-04-01T00:50:34;93775.28;;;10.53;100.00
35989;BME280;22064;42.672;23.282;2023-04-01T00:53:02;93778.09;;;10.62;100.00
35989;BME280;22064;42.672;23.282;2023-04-01T00:55:31;93774.19;;;10.64;100.00
35989;BME280;22064;42.672;23.282;2023-04-01T00:57:58;93772.09;;;10.82;100.00
35989;BME280;22064;42.672;23.282;2023-04-01T01:00:25;93760.13;;;10.71;100.00
35989;BME280;22064;42.672;23.282;2023-04-01T01:02:52;93753.63;;;10.68;100.00
35989;BME280;22064;42.672;23.282;2023-04-01T01:05:25;93731.50;;;10.55;100.00
35989;BME280;22064;42.672;23.282;2023-04-01T01:08:31;93749.47;;;10.67;100.00
35989;BME280;22064;42.672;23.282;2023-04-01T01:11:05;93748.44;;;10.58;100.00
35989;BME280;22064;42.672;23.282;2023-04-01T01:13:45;93731.25;;;10.52;100.00
35989;BME280;22064;42.672;23.282;2023-04-01T01:16:39;93735.97;;;10.45;100.00
35989;BME280;22064;42.672;23.282;2023-04-01T01:27:13;93720.06;;;10.46;100.00
35989;BME280;22064;42.672;23.282;2023-04-01T01:32:38;93707.06;;;10.21;100.00
35989;BME280;22064;42.672;23.282;2023-04-01T01:38:10;93702.66;;;10.16;100.00
35989;BME280;22064;42.672;23.282;2023-04-01T01:40:39;93705.00;;;10.23;100.00
35989;BME280;22064;42.672;23.282;2023-04-01T01:43:09;93715.91;;;10.25;100.00
35989;BME280;22064;42.672;23.282;2023-04-01T01:45:42;93706.31;;;10.30;100.00
35989;BME280;22064;42.672;23.282;2023-04-01T01:48:11;93707.88;;;10.26;100.00
35989;BME280;22064;42.672;23.282;2023-04-01T01:50:38;93687.34;;;10.09;100.00
35989;BME280;22064;42.672;23.282;2023-04-01T01:53:11;93706.03;;;10.47;100.00
35989;BME280;22064;42.672;23.282;2023-04-01T01:55:40;93704.72;;;10.50;100.00
35989;BME280;22064;42.672;23.282;2023-04-01T01:58:20;93706.81;;;10.48;100.00
35989;BME280;22064;42.672;23.282;2023-04-01T02:00:51;93699.47;;;10.65;100.00
35989;BME280;22064;42.672;23.282;2023-04-01T02:03:21;93693.53;;;10.54;100.00
35989;BME280;22064;42.672;23.282;2023-04-01T02:05:51;93677.16;;;10.44;100.00
35989;BME280;22064;42.672;23.282;2023-04-01T02:08:40;93683.16;;;10.44;100.00
35989;BME280;22064;42.672;23.282;2023-04-01T02:11:10;93673.22;;;10.51;100.00
35989;BME280;22064;42.672;23.282;2023-04-01T02:14:10;93679.97;;;10.57;100.00
35989;BME280;22064;42.672;23.282;2023-04-01T02:16:59;93683.06;;;10.64;100.00
35989;BME280;22064;42.672;23.282;2023-04-01T02:19:39;93676.56;;;10.67;100.00
35989;BME280;22064;42.672;23.282;2023-04-01T02:22:10;93669.78;;;10.76;100.00
35989;BME280;22064;42.672;23.282;2023-04-01T02:24:38;93678.63;;;10.75;100.00
35989;BME280;22064;42.672;23.282;2023-04-01T02:27:05;93681.81;;;10.52;100.00
35989;BME280;22064;42.672;23.282;2023-04-01T02:29:32;93688.63;;;10.37;100.00
35989;BME280;22064;42.672;23.282;2023-04-01T02:31:59;93700.06;;;10.36;100.00
35989;BME280;22064;42.672;23.282;2023-04-01T02:34:26;93687.81;;;10.42;100.00
35989;BME280;22064;42.672;23.282;2023-04-01T02:36:52;93682.31;;;10.59;100.00
35989;BME280;22064;42.672;23.282;2023-04-01T02:39:20;93691.16;;;10.63;100.00
35989;BME280;22064;42.672;23.282;2023-04-01T02:41:46;93687.47;;;10.79;100.00
35989;BME280;22064;42.672;23.282;2023-04-01T02:44:14;93693.28;;;10.51;100.00
35989;BME280;22064;42.672;23.282;2023-04-01T02:46:41;93695.09;;;10.45;100.00
35989;BME280;22064;42.672;23.282;2023-04-01T02:49:07;93689.88;;;10.60;100.00
35989;BME280;22064;42.672;23.282;2023-04-01T02:51:33;93688.59;;;10.48;100.00
35989;BME280;22064;42.672;23.282;2023-04-01T02:54:00;93700.09;;;10.31;100.00
35989;BME280;22064;42.672;23.282;2023-04-01T02:56:26;93692.53;;;10.04;100.00
35989;BME280;22064;42.672;23.282;2023-04-01T02:58:52;93689.16;;;10.04;100.00
35989;BME280;22064;42.672;23.282;2023-04-01T03:01:19;93708.91;;;9.94;100.00
35989;BME280;22064;42.672;23.282;2023-04-01T03:03:45;93712.28;;;9.95;100.00
35989;BME280;22064;42.672;23.282;2023-04-01T03:06:12;93709.94;;;10.09;100.00
35989;BME280;22064;42.672;23.282;2023-04-01T03:08:38;93708.91;;;10.10;100.00
35989;BME280;22064;42.672;23.282;2023-04-01T03:11:05;93718.78;;;10.03;100.00
35989;BME280;22064;42.672;23.282;2023-04-01T03:13:34;93713.34;;;10.20;100.00
35989;BME280;22064;42.672;23.282;2023-04-01T03:16:00;93719.31;;;10.25;100.00
35989;BME280;22064;42.672;23.282;2023-04-01T03:18:26;93708.41;;;10.38;100.00
35989;BME280;22064;42.672;23.282;2023-04-01T03:20:52;93720.34;;;10.19;100.00
35989;BME280;22064;42.672;23.282;2023-04-01T03:23:18;93717.22;;;9.91;100.00
35989;BME280;22064;42.672;23.282;2023-04-01T03:25:47;93737.53;;;9.94;100.00
35989;BME280;22064;42.672;23.282;2023-04-01T03:28:15;93725.81;;;9.87;100.00
35989;BME280;22064;42.672;23.282;2023-04-01T03:30:41;93715.94;;;9.99;100.00
35989;BME280;22064;42.672;23.282;2023-04-01T03:33:08;93725.03;;;10.07;100.00
35989;BME280;22064;42.672;23.282;2023-04-01T03:35:34;93703.19;;;10.03;100.00
35989;BME280;22064;42.672;23.282;2023-04-01T03:38:01;93706.81;;;10.12;100.00
35989;BME280;22064;42.672;23.282;2023-04-01T03:40:28;93701.09;;;10.25;100.00
35989;BME280;22064;42.672;23.282;2023-04-01T03:42:53;93680.03;;;10.11;100.00
35989;BME280;22064;42.672;23.282;2023-04-01T03:45:21;93679.53;;;10.30;100.00
35989;BME280;22064;42.672;23.282;2023-04-01T03:47:47;93655.31;;;10.29;100.00
35989;BME280;22064;42.672;23.282;2023-04-01T03:50:13;93646.47;;;10.25;100.00
35989;BME280;22064;42.672;23.282;2023-04-01T03:52:39;93639.72;;;10.29;100.00
35989;BME280;22064;42.672;23.282;2023-04-01T03:55:05;93618.91;;;10.19;100.00
35989;BME280;22064;42.672;23.282;2023-04-01T03:57:31;93630.06;;;10.25;100.00
35989;BME280;22064;42.672;23.282;2023-04-01T04:00:03;93618.09;;;10.18;100.00
35989;BME280;22064;42.672;23.282;2023-04-01T04:02:40;93618.38;;;10.27;100.00
35989;BME280;22064;42.672;23.282;2023-04-01T04:05:07;93613.13;;;10.48;100.00
35989;BME280;22064;42.672;23.282;2023-04-01T04:07:34;93599.88;;;10.44;100.00
35989;BME280;22064;42.672;23.282;2023-04-01T04:10:05;93608.94;;;10.52;100.00
35989;BME280;22064;42.672;23.282;2023-04-01T04:12:32;93602.44;;;10.54;100.00
35989;BME280;22064;42.672;23.282;2023-04-01T04:14:58;93589.16;;;10.51;100.00
35989;BME280;22064;42.672;23.282;2023-04-01T04:17:24;93579.88;;;10.34;100.00
35989;BME280;22064;42.672;23.282;2023-04-01T04:19:50;93578.53;;;10.37;100.00
35989;BME280;22064;42.672;23.282;2023-04-01T04:22:16;93581.41;;;10.40;100.00
35989;BME280;22064;42.672;23.282;2023-04-01T04:24:43;93587.63;;;10.45;100.00
35989;BME280;22064;42.672;23.282;2023-04-01T04:27:11;93597.03;;;10.40;100.00
35989;BME280;22064;42.672;23.282;2023-04-01T04:29:47;93569.94;;;10.47;100.00
35989;BME280;22064;42.672;23.282;2023-04-01T04:32:13;93578.53;;;10.37;100.00
35989;BME280;22064;42.672;23.282;2023-04-01T04:34:39;93583.22;;;10.25;100.00
35989;BME280;22064;42.672;23.282;2023-04-01T04:37:05;93585.63;;;10.06;100.00
35989;BME280;22064;42.672;23.282;2023-04-01T04:39:34;93574.66;;;10.24;100.00
35989;BME280;22064;42.672;23.282;2023-04-01T04:42:00;93556.00;;;10.07;100.00
35989;BME280;22064;42.672;23.282;2023-04-01T04:44:26;93552.09;;;10.09;100.00
35989;BME280;22064;42.672;23.282;2023-04-01T04:46:52;93548.75;;;9.88;100.00
35989;BME280;22064;42.672;23.282;2023-04-01T04:49:18;93553.41;;;9.91;100.00
35989;BME280;22064;42.672;23.282;2023-04-01T04:51:44;93535.69;;;10.09;100.00
35989;BME280;22064;42.672;23.282;2023-04-01T04:54:13;93549.25;;;10.01;100.00
35989;BME280;22064;42.672;23.282;2023-04-01T04:56:53;93548.41;;;10.15;100.00
35989;BME280;22064;42.672;23.282;2023-04-01T04:59:21;93541.88;;;10.23;100.00
35989;BME280;22064;42.672;23.282;2023-04-01T05:02:07;93534.59;;;10.25;100.00
35989;BME280;22064;42.672;23.282;2023-04-01T05:04:36;93525.78;;;10.11;100.00
35989;BME280;22064;42.672;23.282;2023-04-01T05:07:04;93538.75;;;10.21;100.00
35989;BME280;22064;42.672;23.282;2023-04-01T05:09:31;93540.81;;;10.39;100.00
35989;BME280;22064;42.672;23.282;2023-04-01T05:11:58;93532.75;;;10.36;100.00
35989;BME280;22064;42.672;23.282;2023-04-01T05:14:26;93527.78;;;10.39;100.00
35989;BME280;22064;42.672;23.282;2023-04-01T05:16:59;93504.75;;;10.12;100.00
35989;BME280;22064;42.672;23.282;2023-04-01T05:19:25;93520.59;;;10.16;100.00
35989;BME280;22064;42.672;23.282;2023-04-01T05:21:50;93488.84;;;10.19;100.00
35989;BME280;22064;42.672;23.282;2023-04-01T05:24:19;93492.78;;;10.06;100.00
35989;BME280;22064;42.672;23.282;2023-04-01T05:26:45;93509.88;;;10.33;100.00
35989;BME280;22064;42.672;23.282;2023-04-01T05:29:12;93507.44;;;10.52;100.00
35989;BME280;22064;42.672;23.282;2023-04-01T05:31:38;93494.28;;;10.23;100.00
35989;BME280;22064;42.672;23.282;2023-04-01T05:34:05;93513.28;;;10.18;100.00
35989;BME280;22064;42.672;23.282;2023-04-01T05:36:31;93485.53;;;10.58;100.00
35989;BME280;22064;42.672;23.282;2023-04-01T05:38:57;93473.03;;;10.60;100.00
35989;BME280;22064;42.672;23.282;2023-04-01T05:41:26;93502.81;;;10.83;100.00
35989;BME280;22064;42.672;23.282;2023-04-01T05:43:51;93503.25;;;11.00;100.00
35989;BME280;22064;42.672;23.282;2023-04-01T05:46:36;93505.22;;;11.43;100.00
35989;BME280;22064;42.672;23.282;2023-04-01T05:49:10;93479.59;;;11.55;100.00
35989;BME280;22064;42.672;23.282;2023-04-01T05:51:37;93496.22;;;11.88;100.00
35989;BME280;22064;42.672;23.282;2023-04-01T05:54:05;93460.72;;;11.92;100.00
35989;BME280;22064;42.672;23.282;2023-04-01T05:56:31;93476.84;;;12.18;100.00
35989;BME280;22064;42.672;23.282;2023-04-01T05:58:58;93483.00;;;12.28;100.00
35989;BME280;22064;42.672;23.282;2023-04-01T06:01:24;93481.81;;;12.58;100.00
35989;BME280;22064;42.672;23.282;2023-04-01T06:03:50;93484.72;;;12.94;100.00
35989;BME280;22064;42.672;23.282;2023-04-01T06:06:24;93486.00;;;12.97;98.38
35989;BME280;22064;42.672;23.282;2023-04-01T06:08:53;93486.13;;;13.05;100.00
35989;BME280;22064;42.672;23.282;2023-04-01T06:11:37;93477.72;;;13.08;93.14
35989;BME280;22064;42.672;23.282;2023-04-01T06:28:13;93491.50;;;13.47;83.86
35989;BME280;22064;42.672;23.282;2023-04-01T06:30:58;93466.25;;;13.56;82.99
35989;BME280;22064;42.672;23.282;2023-04-01T06:36:41;93479.59;;;13.54;78.71
35989;BME280;22064;42.672;23.282;2023-04-01T06:39:31;93468.78;;;13.75;75.80
35989;BME280;22064;42.672;23.282;2023-04-01T06:42:05;93436.91;;;13.59;73.66
35989;BME280;22064;42.672;23.282;2023-04-01T06:50:38;93445.53;;;13.87;74.03
35989;BME280;22064;42.672;23.282;2023-04-01T06:56:41;93427.81;;;13.84;70.49
35989;BME280;22064;42.672;23.282;2023-04-01T06:59:17;93422.94;;;13.91;68.66
35989;BME280;22064;42.672;23.282;2023-04-01T07:01:50;93424.69;;;13.82;69.72
35989;BME280;22064;42.672;23.282;2023-04-01T07:04:29;93431.78;;;13.68;71.75
35989;BME280;22064;42.672;23.282;2023-04-01T07:06:59;93443.09;;;13.77;74.57
35989;BME280;22064;42.672;23.282;2023-04-01T07:09:37;93429.25;;;13.76;73.41
35989;BME280;22064;42.672;23.282;2023-04-01T07:16:11;93407.03;;;14.15;74.38
35989;BME280;22064;42.672;23.282;2023-04-01T07:18:44;93418.41;;;13.97;75.97
35989;BME280;22064;42.672;23.282;2023-04-01T07:21:22;93430.59;;;13.60;82.56
35989;BME280;22064;42.672;23.282;2023-04-01T07:23:51;93448.63;;;13.61;86.51
35989;BME280;22064;42.672;23.282;2023-04-01T07:26:32;93460.66;;;13.30;89.78
35989;BME280;22064;42.672;23.282;2023-04-01T07:29:14;93433.97;;;13.47;89.09
35989;BME280;22064;42.672;23.282;2023-04-01T07:35:09;93453.56;;;13.77;91.93
35989;BME280;22064;42.672;23.282;2023-04-01T07:48:29;93435.25;;;13.49;96.33
35989;BME280;22064;42.672;23.282;2023-04-01T07:51:18;93419.16;;;13.70;95.75
35989;BME280;22064;42.672;23.282;2023-04-01T07:54:16;93433.41;;;13.50;94.20
35989;BME280;22064;42.672;23.282;2023-04-01T07:59:59;93411.28;;;13.28;97.25
35989;BME280;22064;42.672;23.282;2023-04-01T08:06:16;93433.13;;;13.65;99.41
35989;BME280;22064;42.672;23.282;2023-04-01T08:11:21;93396.25;;;14.30;87.98
35989;BME280;22064;42.672;23.282;2023-04-01T08:14:33;93402.63;;;14.38;83.01
35989;BME280;22064;42.672;23.282;2023-04-01T08:17:31;93386.22;;;13.82;90.52
35989;BME280;22064;42.672;23.282;2023-04-01T08:22:44;93361.41;;;13.80;92.44
35989;BME280;22064;42.672;23.282;2023-04-01T08:25:26;93375.44;;;14.12;88.86
35989;BME280;22064;42.672;23.282;2023-04-01T08:30:33;93372.03;;;14.47;81.19
35989;BME280;22064;42.672;23.282;2023-04-01T08:35:57;93338.59;;;14.67;80.89
35989;BME280;22064;42.672;23.282;2023-04-01T08:38:52;93311.81;;;15.01;78.02
35989;BME280;22064;42.672;23.282;2023-04-01T08:45:23;93299.97;;;15.04;74.62
35989;BME280;22064;42.672;23.282;2023-04-01T08:48:08;93314.59;;;14.73;77.68
35989;BME280;22064;42.672;23.282;2023-04-01T08:56:21;93297.34;;;16.27;64.17
35989;BME280;22064;42.672;23.282;2023-04-01T09:05:30;93300.41;;;16.55;61.29
35989;BME280;22064;42.672;23.282;2023-04-01T09:08:08;93300.56;;;16.58;55.75
35989;BME280;22064;42.672;23.282;2023-04-01T09:19:27;93293.03;;;17.81;51.60
35989;BME280;22064;42.672;23.282;2023-04-01T09:27:44;93276.88;;;17.61;49.94
35989;BME280;22064;42.672;23.282;2023-04-01T09:38:38;93261.69;;;17.88;45.86
35989;BME280;22064;42.672;23.282;2023-04-01T09:41:19;93246.69;;;17.88;45.43
35989;BME280;22064;42.672;23.282;2023-04-01T09:52:30;93229.97;;;18.72;37.67
35989;BME280;22064;42.672;23.282;2023-04-01T09:55:40;93225.03;;;18.58;37.44
35989;BME280;22064;42.672;23.282;2023-04-01T10:26:06;93181.84;;;19.85;38.67
35989;BME280;22064;42.672;23.282;2023-04-01T10:37:00;93170.09;;;19.58;38.95
35989;BME280;22064;42.672;23.282;2023-04-01T10:46:15;93147.69;;;18.66;43.32
35989;BME280;22064;42.672;23.282;2023-04-01T10:49:07;93170.03;;;18.81;44.20
35989;BME280;22064;42.672;23.282;2023-04-01T11:07:59;93138.09;;;18.37;41.21
35989;BME280;22064;42.672;23.282;2023-04-01T11:23:34;93148.19;;;18.35;39.85
35989;BME280;22064;42.672;23.282;2023-04-01T11:26:16;93172.19;;;17.67;42.95
35989;BME280;22064;42.672;23.282;2023-04-01T11:31:54;93183.16;;;17.18;44.05
35989;BME280;22064;42.672;23.282;2023-04-01T11:49:59;93375.28;;;11.79;100.00
35989;BME280;22064;42.672;23.282;2023-04-01T12:03:43;93404.19;;;10.37;100.00
35989;BME280;22064;42.672;23.282;2023-04-01T12:06:25;93378.22;;;10.32;100.00
35989;BME280;22064;42.672;23.282;2023-04-01T12:28:14;93365.94;;;11.06;100.00
35989;BME280;22064;42.672;23.282;2023-04-01T12:31:02;93385.06;;;11.20;100.00
35989;BME280;22064;42.672;23.282;2023-04-01T12:39:48;93387.22;;;11.13;100.00
35989;BME280;22064;42.672;23.282;2023-04-01T12:45:23;93375.38;;;11.26;100.00
35989;BME280;22064;42.672;23.282;2023-04-01T12:48:25;93363.50;;;11.63;100.00
35989;BME280;22064;42.672;23.282;2023-04-01T12:51:20;93372.69;;;11.55;100.00
35989;BME280;22064;42.672;23.282;2023-04-01T13:13:34;93294.88;;;12.05;100.00
35989;BME280;22064;42.672;23.282;2023-04-01T13:16:18;93278.97;;;12.07;100.00
35989;BME280;22064;42.672;23.282;2023-04-01T13:19:02;93290.88;;;12.45;100.00
35989;BME280;22064;42.672;23.282;2023-04-01T13:32:03;93292.59;;;13.43;100.00
35989;BME280;22064;42.672;23.282;2023-04-01T13:37:45;93266.19;;;14.48;100.00
35989;BME280;22064;42.672;23.282;2023-04-01T13:40:33;93258.75;;;14.42;100.00
35989;BME280;22064;42.672;23.282;2023-04-01T13:51:22;93232.53;;;15.27;100.00
35989;BME280;22064;42.672;23.282;2023-04-01T14:16:11;93217.16;;;16.94;64.07
35989;BME280;22064;42.672;23.282;2023-04-01T14:22:16;93200.78;;;17.26;58.90
35989;BME280;22064;42.672;23.282;2023-04-01T14:54:48;93155.72;;;21.35;39.91
35989;BME280;22064;42.672;23.282;2023-04-01T14:57:23;93153.03;;;21.86;39.10
35989;BME280;22064;42.672;23.282;2023-04-01T15:03:14;93167.47;;;21.02;40.50
35989;BME280;22064;42.672;23.282;2023-04-01T15:05:52;93167.31;;;20.35;42.51
35989;BME280;22064;42.672;23.282;2023-04-01T15:08:29;93183.69;;;19.07;44.45
35989;BME280;22064;42.672;23.282;2023-04-01T15:16:45;93204.63;;;16.35;55.86
35989;BME280;22064;42.672;23.282;2023-04-01T15:19:42;93197.25;;;15.93;63.45
35989;BME280;22064;42.672;23.282;2023-04-01T15:28:10;93204.63;;;15.48;65.94
35989;BME280;22064;42.672;23.282;2023-04-01T15:31:03;93199.59;;;15.78;65.01
35989;BME280;22064;42.672;23.282;2023-04-01T15:33:43;93195.88;;;15.79;63.95
35989;BME280;22064;42.672;23.282;2023-04-01T15:44:50;93223.50;;;15.10;67.99
35989;BME280;22064;42.672;23.282;2023-04-01T16:00:55;93485.69;;;7.97;100.00
35989;BME280;22064;42.672;23.282;2023-04-01T16:12:19;93472.19;;;7.32;100.00
35989;BME280;22064;42.672;23.282;2023-04-01T16:15:03;93470.59;;;7.31;100.00
35989;BME280;22064;42.672;23.282;2023-04-01T16:22:45;93495.03;;;7.46;100.00
35989;BME280;22064;42.672;23.282;2023-04-01T16:25:17;93503.94;;;7.65;100.00
35989;BME280;22064;42.672;23.282;2023-04-01T16:27:53;93514.13;;;7.77;100.00
35989;BME280;22064;42.672;23.282;2023-04-01T16:30:32;93499.53;;;7.66;100.00
35989;BME280;22064;42.672;23.282;2023-04-01T16:33:20;93506.25;;;7.61;100.00
35989;BME280;22064;42.672;23.282;2023-04-01T16:36:05;93533.44;;;7.59;100.00
35989;BME280;22064;42.672;23.282;2023-04-01T16:42:16;93510.78;;;7.39;100.00
35989;BME280;22064;42.672;23.282;2023-04-01T16:47:19;93536.75;;;7.49;100.00
35989;BME280;22064;42.672;23.282;2023-04-01T16:49:53;93532.41;;;7.55;100.00
35989;BME280;22064;42.672;23.282;2023-04-01T16:55:35;93551.03;;;7.57;100.00
35989;BME280;22064;42.672;23.282;2023-04-01T16:58:07;93542.81;;;7.65;100.00
35989;BME280;22064;42.672;23.282;2023-04-01T17:00:41;93534.50;;;7.63;100.00
35989;BME280;22064;42.672;23.282;2023-04-01T17:03:20;93561.00;;;7.75;100.00
35989;BME280;22064;42.672;23.282;2023-04-01T17:11:45;93559.00;;;7.87;100.00
35989;BME280;22064;42.672;23.282;2023-04-01T17:30:52;93579.88;;;7.66;100.00
35989;BME280;22064;42.672;23.282;2023-04-01T17:41:53;93591.06;;;7.39;100.00
35989;BME280;22064;42.672;23.282;2023-04-01T17:47:35;93567.22;;;7.37;100.00
35989;BME280;22064;42.672;23.282;2023-04-01T17:50:24;93579.63;;;7.35;100.00
35989;BME280;22064;42.672;23.282;2023-04-01T17:55:54;93592.91;;;7.44;100.00
35989;BME280;22064;42.672;23.282;2023-04-01T17:58:29;93582.88;;;7.52;100.00
35989;BME280;22064;42.672;23.282;2023-04-01T18:06:41;93616.13;;;7.66;100.00
35989;BME280;22064;42.672;23.282;2023-04-01T18:23:25;93643.06;;;7.32;100.00
35989;BME280;22064;42.672;23.282;2023-04-01T18:26:02;93646.88;;;7.25;100.00
35989;BME280;22064;42.672;23.282;2023-04-01T18:28:54;93657.28;;;7.30;100.00
35989;BME280;22064;42.672;23.282;2023-04-01T18:31:25;93664.31;;;7.34;100.00
35989;BME280;22064;42.672;23.282;2023-04-01T18:36:53;93651.16;;;7.41;100.00
35989;BME280;22064;42.672;23.282;2023-04-01T18:39:40;93647.94;;;7.29;100.00
35989;BME280;22064;42.672;23.282;2023-04-01T18:45:44;93652.47;;;7.44;100.00
35989;BME280;22064;42.672;23.282;2023-04-01T18:51:13;93640.66;;;7.53;100.00
35989;BME280;22064;42.672;23.282;2023-04-01T18:53:47;93650.81;;;7.59;100.00
35989;BME280;22064;42.672;23.282;2023-04-01T18:56:47;93650.03;;;7.59;100.00
35989;BME280;22064;42.672;23.282;2023-04-01T18:59:23;93656.03;;;7.64;100.00
35989;BME280;22064;42.672;23.282;2023-04-01T19:02:41;93654.47;;;7.63;100.00
35989;BME280;22064;42.672;23.282;2023-04-01T19:05:39;93654.16;;;7.55;100.00
35989;BME280;22064;42.672;23.282;2023-04-01T19:11:05;93662.19;;;7.58;100.00
35989;BME280;22064;42.672;23.282;2023-04-01T19:14:19;93677.78;;;7.63;100.00
35989;BME280;22064;42.672;23.282;2023-04-01T19:17:37;93696.91;;;7.57;100.00
35989;BME280;22064;42.672;23.282;2023-04-01T19:20:20;93695.88;;;7.58;100.00
35989;BME280;22064;42.672;23.282;2023-04-01T19:23:16;93704.34;;;7.81;100.00
35989;BME280;22064;42.672;23.282;2023-04-01T19:25:54;93702.53;;;7.81;100.00
35989;BME280;22064;42.672;23.282;2023-04-01T19:37:32;93713.22;;;7.85;100.00
35989;BME280;22064;42.672;23.282;2023-04-01T19:46:10;93737.19;;;7.70;100.00
35989;BME280;22064;42.672;23.282;2023-04-01T20:05:49;93729.91;;;7.99;100.00
35989;BME280;22064;42.672;23.282;2023-04-01T20:16:15;93707.84;;;7.97;100.00
35989;BME280;22064;42.672;23.282;2023-04-01T20:19:00;93720.78;;;7.92;100.00
35989;BME280;22064;42.672;23.282;2023-04-01T20:21:46;93723.66;;;7.95;100.00
35989;BME280;22064;42.672;23.282;2023-04-01T20:24:43;93716.72;;;8.01;100.00
35989;BME280;22064;42.672;23.282;2023-04-01T20:27:18;93721.78;;;7.91;100.00
35989;BME280;22064;42.672;23.282;2023-04-01T20:41:07;93728.78;;;7.90;100.00
35989;BME280;22064;42.672;23.282;2023-04-01T20:46:39;93730.31;;;7.86;100.00
35989;BME280;22064;42.672;23.282;2023-04-01T20:52:41;93723.13;;;7.93;100.00
35989;BME280;22064;42.672;23.282;2023-04-01T20:55:21;93728.00;;;7.90;100.00
35989;BME280;22064;42.672;23.282;2023-04-01T20:58:05;93743.03;;;7.87;100.00
35989;BME280;22064;42.672;23.282;2023-04-01T21:03:34;93724.09;;;7.87;100.00
35989;BME280;22064;42.672;23.282;2023-04-01T21:09:35;93749.88;;;7.99;100.00
35989;BME280;22064;42.672;23.282;2023-04-01T21:12:34;93750.72;;;8.09;100.00
35989;BME280;22064;42.672;23.282;2023-04-01T21:20:59;93755.56;;;8.33;100.00
35989;BME280;22064;42.672;23.282;2023-04-01T21:40:42;93756.31;;;8.61;100.00
35989;BME280;22064;42.672;23.282;2023-04-01T21:54:55;93773.69;;;8.28;100.00
35989;BME280;22064;42.672;23.282;2023-04-01T22:14:23;93751.22;;;8.06;100.00
35989;BME280;22064;42.672;23.282;2023-04-01T22:17:02;93717.97;;;7.98;100.00
35989;BME280;22064;42.672;23.282;2023-04-01T22:19:49;93739.53;;;8.04;100.00
35989;BME280;22064;42.672;23.282;2023-04-01T22:32:57;93746.06;;;8.12;100.00
35989;BME280;22064;42.672;23.282;2023-04-01T22:38:34;93742.50;;;8.18;100.00
35989;BME280;22064;42.672;23.282;2023-04-01T22:41:06;93754.47;;;8.24;100.00
35989;BME280;22064;42.672;23.282;2023-04-01T22:43:39;93752.31;;;8.16;100.00
35989;BME280;22064;42.672;23.282;2023-04-01T22:51:53;93757.47;;;8.10;100.00
35989;BME280;22064;42.672;23.282;2023-04-01T22:54:43;93768.38;;;8.13;100.00
35989;BME280;22064;42.672;23.282;2023-04-01T23:00:30;93778.38;;;8.31;100.00
35989;BME280;22064;42.672;23.282;2023-04-01T23:03:17;93778.66;;;8.34;100.00
35989;BME280;22064;42.672;23.282;2023-04-01T23:05:52;93779.78;;;8.39;100.00
35989;BME280;22064;42.672;23.282;2023-04-01T23:10:54;93765.91;;;8.28;100.00
35989;BME280;22064;42.672;23.282;2023-04-01T23:13:32;93776.53;;;8.26;100.00
35989;BME280;22064;42.672;23.282;2023-04-01T23:16:01;93773.16;;;8.26;100.00
35989;BME280;22064;42.672;23.282;2023-04-01T23:18:37;93774.66;;;8.22;100.00
35989;BME280;22064;42.672;23.282;2023-04-01T23:21:35;93784.25;;;8.21;100.00
35989;BME280;22064;42.672;23.282;2023-04-01T23:26:54;93775.63;;;8.10;100.00
35989;BME280;22064;42.672;23.282;2023-04-01T23:29:22;93778.91;;;8.33;100.00
35989;BME280;22064;42.672;23.282;2023-04-01T23:31:56;93777.75;;;8.19;100.00
35989;BME280;22064;42.672;23.282;2023-04-01T23:34:31;93788.91;;;8.19;100.00
35989;BME280;22064;42.672;23.282;2023-04-01T23:37:21;93793.56;;;8.17;100.00
35989;BME280;22064;42.672;23.282;2023-04-01T23:39:52;93774.47;;;8.28;100.00
35989;BME280;22064;42.672;23.282;2023-04-01T23:42:28;93791.00;;;8.22;100.00
35989;BME280;22064;42.672;23.282;2023-04-01T23:44:58;93782.31;;;8.06;100.00
35989;BME280;22064;42.672;23.282;2023-04-01T23:47:31;93795.84;;;8.08;100.00